Time;durP1;ratioP1;P1;durP2;ratioP2;P2;SDS_P1;SDS_P2;PMS_P1;PMS_P2;Temp;Humidity;BMP_temperature;BMP_pressure;BME280_temperature;BME280_humidity;BME280_pressure;Samples;Min_cycle;Max_cycle;Signal;HPM_P1;HPM_P2
2021/06/27 00:00:43;;;;;;;9.15;7.15;;;589.70;2432.00;;;;;;4994455;28;20120;-70
2021/06/27 00:03:10;;;;;;;9.85;6.80;;;589.70;2432.00;;;;;;4997789;28;20014;-71
2021/06/27 00:05:37;;;;;;;10.05;6.53;;;589.70;2432.00;;;;;;4997784;28;20093;-70
2021/06/27 00:08:05;;;;;;;7.60;5.97;;;589.70;2432.00;;;;;;4993599;28;20043;-70
2021/06/27 00:10:39;;;;;;;9.50;6.03;;;614.40;2432.00;;;;;;5000912;28;20062;-70
2021/06/27 00:13:06;;;;;;;8.93;7.00;;;614.50;2432.00;;;;;;4995307;28;20018;-70
2021/06/27 00:15:39;;;;;;;7.85;6.38;;;589.70;2432.00;;;;;;5000392;28;20041;-69
2021/06/27 00:18:07;;;;;;;8.20;5.43;;;614.50;2432.00;;;;;;5005271;28;20018;-70
2021/06/27 00:20:36;;;;;;;11.98;6.25;;;614.40;2432.00;;;;;;4995880;28;20152;-70
2021/06/27 00:23:02;;;;;;;6.45;5.10;;;614.50;2432.00;;;;;;4991335;28;20076;-70
2021/06/27 00:25:30;;;;;;;8.02;5.88;;;614.50;2432.00;;;;;;5005595;28;20061;-70
2021/06/27 00:27:57;;;;;;;11.60;5.82;;;614.50;2432.00;;;;;;5006813;28;20029;-70
2021/06/27 00:30:24;;;;;;;8.52;5.03;;;614.50;2432.00;;;;;;5001808;28;20052;-70
2021/06/27 00:32:50;;;;;;;8.88;5.93;;;614.40;2432.00;;;;;;4996050;28;20023;-70
2021/06/27 00:35:17;;;;;;;9.50;6.15;;;589.70;2432.00;;;;;;5007909;28;20442;-70
2021/06/27 00:37:43;;;;;;;8.02;5.75;;;589.70;2432.00;;;;;;4993885;28;20072;-70
2021/06/27 00:40:16;;;;;;;9.45;6.38;;;589.70;2432.00;;;;;;4999025;28;20034;-70
2021/06/27 00:42:42;;;;;;;8.45;5.68;;;589.70;2432.00;;;;;;5008172;28;20038;-70
2021/06/27 00:45:10;;;;;;;7.95;5.72;;;589.70;2432.00;;;;;;4995048;28;20031;-70
2021/06/27 00:47:38;;;;;;;10.68;6.43;;;589.60;2432.00;;;;;;4994138;28;20105;-70
2021/06/27 00:50:12;;;;;;;8.55;6.85;;;589.70;2432.00;;;;;;4994822;28;20022;-70
2021/06/27 00:52:38;;;;;;;12.60;6.63;;;589.70;2432.00;;;;;;4972585;28;20036;-70
2021/06/27 00:55:06;;;;;;;13.93;6.15;;;589.60;2432.00;;;;;;4992899;28;20093;-70
2021/06/27 00:57:32;;;;;;;10.48;5.30;;;589.60;2432.00;;;;;;4998646;28;20026;-70
2021/06/27 01:00:00;;;;;;;9.45;6.32;;;589.30;2432.00;;;;;;4996090;28;20040;-70
2021/06/27 01:02:26;;;;;;;10.82;5.95;;;589.20;2432.00;;;;;;4997866;28;20038;-70
2021/06/27 01:04:52;;;;;;;10.52;5.70;;;589.20;2432.00;;;;;;4993421;28;20097;-70
2021/06/27 01:07:18;;;;;;;10.68;6.18;;;589.20;2432.00;;;;;;5008537;28;20492;-70
2021/06/27 01:09:43;;;;;;;9.57;5.70;;;589.20;2432.00;;;;;;4987944;28;20073;-71
2021/06/27 01:12:09;;;;;;;7.90;5.70;;;589.30;2432.00;;;;;;4985373;28;20062;-70
2021/06/27 01:14:35;;;;;;;9.35;5.80;;;589.30;2432.00;;;;;;5001999;28;20022;-70
2021/06/27 01:17:01;;;;;;;10.45;6.05;;;589.30;2432.00;;;;;;5006554;28;20045;-69
2021/06/27 01:19:32;;;;;;;9.43;5.97;;;589.20;2432.00;;;;;;5006758;28;20064;-69
2021/06/27 01:21:59;;;;;;;14.07;6.68;;;589.00;2432.00;;;;;;5000984;28;20132;-69
2021/06/27 01:24:25;;;;;;;13.73;7.10;;;588.80;2432.00;;;;;;4994115;28;20022;-69
2021/06/27 01:26:51;;;;;;;12.32;7.47;;;564.10;2432.00;;;;;;5000329;28;20481;-70
2021/06/27 01:29:17;;;;;;;9.60;7.32;;;564.00;2432.00;;;;;;4996571;28;20030;-69
2021/06/27 01:31:44;;;;;;;13.50;8.20;;;564.00;2432.00;;;;;;4975909;28;20030;-70
2021/06/27 01:34:11;;;;;;;10.68;7.82;;;563.90;2432.00;;;;;;4992369;28;20465;-69
2021/06/27 01:36:36;;;;;;;9.73;7.20;;;563.90;2432.00;;;;;;4999287;28;20038;-70
2021/06/27 01:39:03;;;;;;;10.80;7.93;;;563.90;2432.00;;;;;;4992976;28;20042;-69
2021/06/27 01:41:28;;;;;;;12.50;8.38;;;563.90;2432.00;;;;;;4998548;28;20029;-70
2021/06/27 01:43:54;;;;;;;11.85;6.38;;;563.90;2432.00;;;;;;4993479;28;20018;-71
2021/06/27 01:46:20;;;;;;;11.30;7.63;;;563.90;2432.00;;;;;;4969309;28;20044;-70
2021/06/27 01:48:46;;;;;;;12.20;8.23;;;563.90;2432.00;;;;;;5001147;28;20380;-70
2021/06/27 01:51:12;;;;;;;10.02;6.88;;;563.90;2432.00;;;;;;4998975;28;20026;-70
2021/06/27 01:53:40;;;;;;;13.68;7.25;;;563.70;2432.00;;;;;;4996530;28;20436;-70
2021/06/27 01:56:07;;;;;;;12.50;7.68;;;563.70;2432.00;;;;;;4996547;28;20029;-70
2021/06/27 01:58:42;;;;;;;13.15;7.20;;;563.70;2432.00;;;;;;5001499;28;20094;-70
2021/06/27 02:01:13;;;;;;;10.52;7.25;;;563.70;2432.00;;;;;;4975670;28;20037;-70
2021/06/27 02:03:38;;;;;;;10.05;7.43;;;563.70;2432.00;;;;;;4992543;28;20041;-70
2021/06/27 02:06:04;;;;;;;11.88;7.50;;;563.70;2432.00;;;;;;4992653;28;20022;-70
2021/06/27 02:08:34;;;;;;;11.57;7.82;;;563.70;2432.00;;;;;;4992617;28;20070;-70
2021/06/27 02:11:02;;;;;;;13.02;7.97;;;563.70;2432.00;;;;;;4992521;28;20042;-70
2021/06/27 02:13:28;;;;;;;9.93;7.10;;;563.70;2432.00;;;;;;4993120;28;20022;-70
2021/06/27 02:15:53;;;;;;;9.27;7.40;;;563.60;2432.00;;;;;;4992653;28;20028;-70
2021/06/27 02:18:25;;;;;;;16.20;8.35;;;563.60;2432.00;;;;;;4992905;28;20026;-70
2021/06/27 02:20:52;;;;;;;17.52;8.18;;;563.70;2432.00;;;;;;4992808;28;20027;-70
2021/06/27 02:23:17;;;;;;;15.82;7.90;;;563.60;2432.00;;;;;;4992813;28;20026;-70
2021/06/27 02:25:45;;;;;;;8.50;6.75;;;563.60;2432.00;;;;;;4992568;28;20531;-70
2021/06/27 02:28:11;;;;;;;10.65;7.40;;;563.60;2432.00;;;;;;4992818;28;20050;-70
2021/06/27 02:30:37;;;;;;;10.25;8.00;;;563.50;2432.00;;;;;;4992320;28;20033;-69
2021/06/27 02:33:04;;;;;;;11.07;7.82;;;563.30;2432.00;;;;;;4992350;28;20461;-70
2021/06/27 02:35:30;;;;;;;9.15;7.85;;;563.30;2432.00;;;;;;4992388;28;20398;-69
2021/06/27 02:37:56;;;;;;;8.55;7.22;;;563.30;2432.00;;;;;;4992126;28;20038;-70
2021/06/27 02:40:21;;;;;;;14.90;8.75;;;563.30;2432.00;;;;;;4974990;28;20042;-70
2021/06/27 02:42:47;;;;;;;13.55;7.93;;;563.20;2432.00;;;;;;4991087;28;20033;-70
2021/06/27 02:45:14;;;;;;;13.60;7.10;;;563.20;2432.00;;;;;;4992915;28;20030;-69
2021/06/27 02:47:41;;;;;;;11.07;7.47;;;563.20;2432.00;;;;;;4992887;28;20030;-69
2021/06/27 02:50:10;;;;;;;13.00;8.60;;;538.40;2406.40;;;;;;5007944;28;20053;-69
2021/06/27 02:52:36;;;;;;;13.02;8.48;;;538.50;2406.40;;;;;;4992563;28;20030;-70
2021/06/27 02:55:03;;;;;;;13.40;7.40;;;538.40;2406.40;;;;;;4992288;28;20022;-70
2021/06/27 02:57:28;;;;;;;10.05;8.43;;;538.40;2406.40;;;;;;4992401;28;20026;-70
2021/06/27 02:59:54;;;;;;;13.13;8.30;;;563.20;2432.00;;;;;;4992179;28;20041;-70
2021/06/27 03:02:20;;;;;;;12.77;9.35;;;538.50;2406.40;;;;;;4992477;28;20484;-70
2021/06/27 03:04:46;;;;;;;12.35;8.40;;;538.40;2406.40;;;;;;4991937;28;20014;-70
2021/06/27 03:07:11;;;;;;;12.57;10.38;;;538.40;2406.40;;;;;;4987417;28;20034;-70
2021/06/27 03:09:37;;;;;;;14.18;10.50;;;538.50;2406.40;;;;;;4996003;28;20050;-70
2021/06/27 03:12:03;;;;;;;15.30;10.52;;;563.20;2432.00;;;;;;4991853;28;20046;-70
2021/06/27 03:14:29;;;;;;;18.08;11.20;;;538.50;2406.40;;;;;;5000492;28;20485;-70
2021/06/27 03:16:54;;;;;;;16.10;10.38;;;563.20;2432.00;;;;;;4991223;28;20037;-69
2021/06/27 03:19:20;;;;;;;15.20;10.93;;;563.20;2432.00;;;;;;4991909;28;20105;-69
2021/06/27 03:21:46;;;;;;;14.82;10.57;;;563.30;2432.00;;;;;;4991828;28;20065;-70
2021/06/27 03:24:13;;;;;;;15.77;10.90;;;563.30;2432.00;;;;;;5007587;28;20054;-70
2021/06/27 03:26:39;;;;;;;17.08;11.52;;;563.40;2432.00;;;;;;4992316;28;20030;-71
2021/06/27 03:29:05;;;;;;;13.90;10.88;;;563.40;2432.00;;;;;;4992572;28;20015;-71
2021/06/27 03:31:30;;;;;;;16.40;11.73;;;563.50;2432.00;;;;;;4992357;28;20023;-70
2021/06/27 03:33:56;;;;;;;13.93;10.57;;;563.60;2432.00;;;;;;4974853;28;20034;-71
2021/06/27 03:36:22;;;;;;;15.07;10.55;;;563.70;2432.00;;;;;;4992045;28;20445;-71
2021/06/27 03:39:08;;;;;;;15.98;11.40;;;563.80;2432.00;;;;;;4992080;28;20073;-70
2021/06/27 03:41:40;;;;;;;14.57;11.48;;;563.80;2432.00;;;;;;4992195;28;20050;-71
2021/06/27 03:44:05;;;;;;;15.35;11.35;;;563.90;2432.00;;;;;;4991677;28;20026;-70
2021/06/27 03:46:31;;;;;;;14.43;10.15;;;563.90;2432.00;;;;;;4992124;28;20097;-70
2021/06/27 03:48:57;;;;;;;15.02;10.45;;;564.10;2432.00;;;;;;4990953;28;20096;-70
2021/06/27 03:51:23;;;;;;;13.30;10.75;;;563.90;2432.00;;;;;;4990940;28;20493;-70
2021/06/27 03:53:49;;;;;;;16.30;10.75;;;563.90;2432.00;;;;;;4991238;28;20496;-70
2021/06/27 03:56:17;;;;;;;13.00;11.48;;;564.00;2432.00;;;;;;4991039;28;20022;-70
2021/06/27 03:58:43;;;;;;;14.77;11.35;;;588.90;2432.00;;;;;;4991320;28;20121;-70
2021/06/27 04:01:09;;;;;;;18.95;10.20;;;588.80;2432.00;;;;;;4991216;28;20023;-70
2021/06/27 04:03:35;;;;;;;17.13;10.07;;;588.80;2432.00;;;;;;4991156;28;20432;-70
2021/06/27 04:06:01;;;;;;;12.60;9.48;;;588.80;2432.00;;;;;;4990972;28;20030;-70
2021/06/27 04:08:26;;;;;;;11.40;9.27;;;588.90;2432.00;;;;;;4990654;28;20046;-70
2021/06/27 04:10:57;;;;;;;14.13;10.48;;;589.00;2432.00;;;;;;4991105;28;20042;-71
2021/06/27 04:13:23;;;;;;;10.65;9.25;;;589.20;2432.00;;;;;;4987354;28;20029;-71
2021/06/27 04:15:49;;;;;;;10.77;9.13;;;589.00;2432.00;;;;;;4991119;28;20475;-70
2021/06/27 04:18:15;;;;;;;14.45;9.15;;;588.90;2432.00;;;;;;4991458;28;20149;-70
2021/06/27 04:20:40;;;;;;;10.93;7.97;;;589.10;2432.00;;;;;;4991327;28;20113;-71
2021/06/27 04:23:06;;;;;;;11.75;8.82;;;589.20;2432.00;;;;;;4991092;28;20030;-71
2021/06/27 04:25:35;;;;;;;11.38;8.60;;;589.30;2432.00;;;;;;4991506;28;20063;-72
2021/06/27 04:28:01;;;;;;;11.77;8.25;;;589.30;2432.00;;;;;;4991122;28;20027;-70
2021/06/27 04:30:27;;;;;;;10.05;9.00;;;589.50;2432.00;;;;;;4994859;28;20022;-71
2021/06/27 04:32:53;;;;;;;9.95;7.63;;;589.50;2432.00;;;;;;4994728;28;20077;-71
2021/06/27 04:35:18;;;;;;;13.90;10.23;;;614.50;2432.00;;;;;;4994934;28;20023;-70
2021/06/27 04:37:44;;;;;;;14.18;10.00;;;614.90;2432.00;;;;;;4994357;28;20038;-70
2021/06/27 04:40:10;;;;;;;13.50;10.02;;;614.90;2432.00;;;;;;4994339;28;20389;-71
2021/06/27 04:42:36;;;;;;;12.82;9.55;;;614.90;2432.00;;;;;;4994356;28;20485;-70
2021/06/27 04:45:03;;;;;;;12.63;9.50;;;614.90;2432.00;;;;;;4994814;28;20041;-70
2021/06/27 04:47:29;;;;;;;11.60;8.40;;;615.00;2432.00;;;;;;4994283;28;20417;-70
2021/06/27 04:49:55;;;;;;;10.25;8.63;;;615.20;2432.00;;;;;;4993371;28;20029;-70
2021/06/27 04:52:21;;;;;;;11.70;9.10;;;640.00;2432.00;;;;;;4976498;28;20038;-70
2021/06/27 04:54:48;;;;;;;15.02;9.48;;;640.00;2432.00;;;;;;4994032;28;20022;-70
2021/06/27 04:57:14;;;;;;;11.85;8.52;;;640.10;2406.40;;;;;;4993612;28;20385;-70
2021/06/27 04:59:39;;;;;;;14.07;9.10;;;640.30;2406.40;;;;;;4993498;28;20022;-70
2021/06/27 05:02:05;;;;;;;10.48;7.97;;;640.50;2380.80;;;;;;4993606;28;20104;-70
2021/06/27 05:04:31;;;;;;;10.13;9.00;;;640.90;2355.20;;;;;;4993631;28;20470;-70
2021/06/27 05:06:57;;;;;;;14.18;8.85;;;665.60;2380.80;;;;;;4993519;28;20533;-70
2021/06/27 05:09:22;;;;;;;13.07;8.52;;;665.70;2355.20;;;;;;4993198;28;20137;-70
2021/06/27 05:11:48;;;;;;;8.73;7.72;;;665.90;2355.20;;;;;;4993854;28;20037;-70
2021/06/27 05:14:14;;;;;;;13.13;8.90;;;666.10;2355.20;;;;;;4993562;28;20074;-70
2021/06/27 05:16:40;;;;;;;11.32;7.35;;;666.10;2355.20;;;;;;4993586;28;20500;-70
2021/06/27 05:19:06;;;;;;;11.98;8.25;;;666.20;2329.60;;;;;;4992020;28;20035;-70
2021/06/27 05:21:31;;;;;;;12.95;9.20;;;666.30;2329.60;;;;;;4993842;28;20033;-70
2021/06/27 05:23:57;;;;;;;9.57;8.00;;;666.30;2329.60;;;;;;4993580;28;20022;-70
2021/06/27 05:26:23;;;;;;;9.65;8.23;;;691.20;2304.00;;;;;;4983862;28;20125;-70
2021/06/27 05:28:48;;;;;;;13.02;8.18;;;691.40;2278.40;;;;;;4993513;28;20346;-70
2021/06/27 05:31:14;;;;;;;9.65;7.70;;;691.50;2278.40;;;;;;4993100;28;20054;-70
2021/06/27 05:33:40;;;;;;;9.93;7.25;;;691.80;2252.80;;;;;;4993491;28;20033;-70
2021/06/27 05:36:06;;;;;;;12.07;8.02;;;692.00;2227.20;;;;;;4991569;28;20381;-71
2021/06/27 05:38:32;;;;;;;10.25;7.32;;;692.00;2252.80;;;;;;4993528;28;20027;-70
2021/06/27 05:40:58;;;;;;;9.10;7.45;;;717.00;2227.20;;;;;;4992515;28;20109;-70
2021/06/27 05:43:23;;;;;;;8.80;7.07;;;717.00;2227.20;;;;;;4993375;28;20057;-71
2021/06/27 05:45:49;;;;;;;10.60;7.15;;;717.10;2201.60;;;;;;4975559;28;20434;-70
2021/06/27 05:48:15;;;;;;;11.40;8.07;;;717.40;2201.60;;;;;;4976147;28;20053;-70
2021/06/27 05:50:40;;;;;;;9.32;8.07;;;717.20;2201.60;;;;;;4993005;28;20049;-70
2021/06/27 05:53:06;;;;;;;10.40;8.95;;;717.20;2201.60;;;;;;4992647;28;20019;-71
2021/06/27 05:55:32;;;;;;;10.77;8.73;;;717.50;2176.00;;;;;;4992393;28;20031;-71
2021/06/27 05:57:58;;;;;;;10.63;7.43;;;717.50;2176.00;;;;;;4992631;28;20105;-70
2021/06/27 06:00:23;;;;;;;9.35;7.47;;;742.40;2176.00;;;;;;4992560;28;20037;-70
2021/06/27 06:02:49;;;;;;;9.50;7.75;;;742.60;2176.00;;;;;;4992153;28;20031;-70
2021/06/27 06:05:15;;;;;;;11.30;8.25;;;742.70;2176.00;;;;;;4992540;28;20030;-70
2021/06/27 06:07:41;;;;;;;11.80;8.10;;;742.60;2176.00;;;;;;4991968;28;20036;-71
2021/06/27 06:10:08;;;;;;;9.20;7.38;;;742.60;2176.00;;;;;;4992499;28;20030;-71
2021/06/27 06:12:34;;;;;;;10.68;6.78;;;742.70;2150.40;;;;;;4992774;28;20477;-71
2021/06/27 06:14:59;;;;;;;14.52;8.02;;;743.10;2099.20;;;;;;4992125;28;20095;-70
2021/06/27 06:17:25;;;;;;;8.70;7.70;;;768.00;2099.20;;;;;;4992477;28;20057;-70
2021/06/27 06:19:52;;;;;;;12.50;7.72;;;768.00;2099.20;;;;;;4992175;28;20358;-70
2021/06/27 06:22:20;;;;;;;8.65;7.65;;;768.30;2048.00;;;;;;4991946;28;20018;-70
2021/06/27 06:24:46;;;;;;;13.15;7.07;;;768.20;2073.60;;;;;;4990495;28;20026;-71
2021/06/27 06:27:39;;;;;;;11.10;6.72;;;768.30;2073.60;;;;;;4991692;28;20030;-68
2021/06/27 06:30:44;;;;;;;10.77;7.20;;;768.30;2048.00;;;;;;4970374;28;20070;-68
2021/06/27 06:33:30;;;;;;;14.05;7.00;;;768.80;2022.40;;;;;;4967949;28;20031;-69
2021/06/27 06:35:56;;;;;;;10.13;7.45;;;768.70;2022.40;;;;;;4972205;28;20467;-68
2021/06/27 06:38:22;;;;;;;10.02;7.35;;;768.70;2022.40;;;;;;4972323;28;20038;-69
2021/06/27 06:40:48;;;;;;;10.68;7.30;;;793.70;2022.40;;;;;;4972011;28;20031;-68
2021/06/27 06:43:13;;;;;;;10.48;7.97;;;793.60;2022.40;;;;;;4986920;28;20035;-68
2021/06/27 06:45:39;;;;;;;9.57;7.60;;;768.90;1996.80;;;;;;4972078;28;20031;-69
2021/06/27 06:48:05;;;;;;;10.65;7.20;;;794.10;1971.20;;;;;;4972223;28;20462;-69
2021/06/27 06:50:31;;;;;;;12.48;6.80;;;794.20;1945.60;;;;;;4972312;28;20034;-69
2021/06/27 06:52:57;;;;;;;9.02;6.90;;;794.30;1971.20;;;;;;4971425;28;20023;-69
2021/06/27 06:55:23;;;;;;;9.98;8.27;;;819.20;1945.60;;;;;;4987152;28;20521;-68
2021/06/27 06:57:49;;;;;;;11.00;7.28;;;819.70;1894.40;;;;;;4971838;28;20101;-68
2021/06/27 07:00:16;;;;;;;9.48;6.90;;;819.60;1894.40;;;;;;4989835;28;20029;-69
2021/06/27 07:02:42;;;;;;;11.45;6.95;;;820.10;1868.80;;;;;;4991391;28;20030;-69
2021/06/27 07:05:09;;;;;;;7.80;6.70;;;820.10;1868.80;;;;;;4991662;28;20409;-68
2021/06/27 07:07:35;;;;;;;13.32;7.53;;;820.10;1843.20;;;;;;4980941;28;20042;-69
2021/06/27 07:10:03;;;;;;;8.57;6.20;;;844.80;1868.80;;;;;;4971913;28;20026;-69
2021/06/27 07:12:30;;;;;;;11.23;6.30;;;845.00;1843.20;;;;;;4987012;28;20046;-69
2021/06/27 07:14:56;;;;;;;7.20;5.90;;;844.80;1868.80;;;;;;4971882;28;20367;-68
2021/06/27 07:17:21;;;;;;;11.85;5.72;;;844.80;1843.20;;;;;;4972055;28;20023;-68
2021/06/27 07:19:47;;;;;;;9.48;7.00;;;844.90;1843.20;;;;;;4971679;28;20486;-69
2021/06/27 07:22:13;;;;;;;9.27;6.57;;;845.00;1817.60;;;;;;4971838;28;20023;-69
2021/06/27 07:24:39;;;;;;;7.90;5.80;;;845.20;1766.40;;;;;;4971779;28;20101;-68
2021/06/27 07:27:06;;;;;;;8.75;5.65;;;845.50;1740.80;;;;;;4971690;28;20031;-69
2021/06/27 07:29:31;;;;;;;7.93;5.47;;;845.70;1766.40;;;;;;4971556;28;20049;-68
2021/06/27 07:31:57;;;;;;;6.82;5.78;;;845.50;1766.40;;;;;;4971457;28;20462;-69
2021/06/27 07:34:23;;;;;;;7.68;5.55;;;845.30;1766.40;;;;;;4971452;28;20019;-68
2021/06/27 07:36:49;;;;;;;7.28;6.25;;;845.30;1766.40;;;;;;4971758;28;20126;-69
2021/06/27 07:39:15;;;;;;;9.05;6.03;;;845.30;1766.40;;;;;;4971675;28;20454;-69
2021/06/27 07:41:41;;;;;;;10.68;6.50;;;845.30;1766.40;;;;;;4971379;28;20070;-68
2021/06/27 07:44:07;;;;;;;8.63;5.55;;;845.20;1766.40;;;;;;4971622;28;20019;-69
2021/06/27 07:46:33;;;;;;;8.45;4.78;;;845.50;1740.80;;;;;;4971265;28;20500;-68
2021/06/27 07:48:58;;;;;;;5.35;4.82;;;845.50;1664.00;;;;;;4971639;28;20034;-69
2021/06/27 07:51:24;;;;;;;6.78;5.22;;;845.50;1689.60;;;;;;4986049;28;20090;-69
2021/06/27 07:53:50;;;;;;;8.07;5.22;;;870.50;1638.40;;;;;;4971515;28;20037;-68
2021/06/27 07:56:16;;;;;;;6.55;5.53;;;870.90;1612.80;;;;;;4971077;28;20029;-69
2021/06/27 07:58:42;;;;;;;6.18;4.30;;;870.90;1587.20;;;;;;4971587;28;20031;-68
2021/06/27 08:01:07;;;;;;;6.53;4.53;;;870.90;1587.20;;;;;;4971660;28;20030;-69
2021/06/27 08:03:33;;;;;;;5.55;4.43;;;870.50;1587.20;;;;;;4974349;28;20031;-69
2021/06/27 08:05:59;;;;;;;7.50;4.70;;;870.50;1587.20;;;;;;4975495;28;20470;-69
2021/06/27 08:08:25;;;;;;;5.80;5.10;;;871.00;1561.60;;;;;;4974994;28;20050;-69
2021/06/27 08:10:51;;;;;;;6.20;4.10;;;871.00;1561.60;;;;;;4958040;28;20057;-69
2021/06/27 08:13:16;;;;;;;3.88;3.42;;;871.00;1536.00;;;;;;4975109;28;20027;-69
2021/06/27 08:15:42;;;;;;;4.65;3.67;;;871.10;1459.20;;;;;;4975214;28;20466;-69
2021/06/27 08:18:08;;;;;;;4.80;3.53;;;870.90;1459.20;;;;;;4974374;28;20480;-70
2021/06/27 08:20:34;;;;;;;4.63;3.97;;;870.90;1459.20;;;;;;4975036;28;20039;-69
2021/06/27 08:23:00;;;;;;;5.43;3.80;;;870.90;1459.20;;;;;;4974993;28;20062;-70
2021/06/27 08:25:26;;;;;;;4.60;3.08;;;870.60;1433.60;;;;;;4974992;28;20137;-70
2021/06/27 08:27:52;;;;;;;5.30;3.55;;;871.10;1408.00;;;;;;4974825;28;20486;-70
2021/06/27 08:30:20;;;;;;;6.95;3.80;;;871.30;1382.40;;;;;;4974167;28;20038;-69
2021/06/27 08:32:47;;;;;;;4.90;3.80;;;871.30;1408.00;;;;;;4974389;28;20049;-69
2021/06/27 08:35:14;;;;;;;4.93;4.10;;;896.50;1382.40;;;;;;4974540;28;20019;-68
2021/06/27 08:37:40;;;;;;;7.38;4.47;;;896.10;1382.40;;;;;;4974522;28;20030;-70
2021/06/27 08:40:07;;;;;;;9.63;5.03;;;871.10;1408.00;;;;;;4974619;28;20501;-71
2021/06/27 08:42:33;;;;;;;6.80;5.13;;;871.10;1408.00;;;;;;4975025;28;20035;-69
2021/06/27 08:45:00;;;;;;;7.97;5.85;;;871.10;1433.60;;;;;;4974521;28;20157;-70
2021/06/27 08:47:27;;;;;;;7.68;6.70;;;896.30;1408.00;;;;;;4970637;28;20034;-70
2021/06/27 08:49:53;;;;;;;9.50;4.78;;;896.30;1408.00;;;;;;4974468;28;20029;-70
2021/06/27 08:52:20;;;;;;;6.45;5.03;;;896.30;1382.40;;;;;;4974374;28;20015;-69
2021/06/27 08:54:47;;;;;;;5.97;5.30;;;896.50;1382.40;;;;;;4974564;28;20486;-69
2021/06/27 08:57:14;;;;;;;6.32;5.53;;;896.90;1382.40;;;;;;4972792;28;20026;-69
2021/06/27 08:59:41;;;;;;;5.90;4.57;;;896.50;1356.80;;;;;;4973309;28;20030;-69
2021/06/27 09:02:08;;;;;;;6.10;5.03;;;922.00;1356.80;;;;;;4973414;28;20023;-71
2021/06/27 09:04:41;;;;;;;9.38;6.63;;;921.70;1356.80;;;;;;4973583;28;20093;-71
2021/06/27 09:07:32;;;;;;;9.38;5.10;;;922.30;1331.20;;;;;;4972714;28;20109;-70
2021/06/27 09:10:17;;;;;;;8.35;5.07;;;947.20;1305.60;;;;;;4934516;29;20038;-70
2021/06/27 09:12:54;;;;;;;7.18;5.30;;;947.60;1280.00;;;;;;4933359;29;20024;-72
2021/06/27 09:15:45;;;;;;;5.97;4.40;;;947.20;1228.80;;;;;;4947324;28;20088;-71
2021/06/27 09:18:14;;;;;;;5.95;3.80;;;922.40;1228.80;;;;;;4935334;29;20016;-72
2021/06/27 09:20:41;;;;;;;5.50;4.78;;;922.40;1228.80;;;;;;4934409;29;20487;-71
2021/06/27 09:23:09;;;;;;;4.43;3.25;;;947.30;1228.80;;;;;;4935308;29;20091;-71
2021/06/27 09:25:35;;;;;;;5.70;4.53;;;947.20;1203.20;;;;;;4934643;29;20428;-71
2021/06/27 09:28:07;;;;;;;5.60;4.20;;;948.00;1152.00;;;;;;4934866;29;20391;-70
2021/06/27 09:30:56;;;;;;;6.00;4.38;;;947.70;1152.00;;;;;;4934622;29;20034;-71
2021/06/27 09:33:24;;;;;;;22.95;11.00;;;947.40;1177.60;;;;;;4932662;29;20123;-71
2021/06/27 09:35:51;;;;;;;7.70;5.00;;;947.20;1152.00;;;;;;4932596;29;20027;-71
2021/06/27 09:38:29;;;;;;;9.25;6.40;;;947.40;1152.00;;;;;;4932549;29;20035;-73
2021/06/27 10:22:32;;;;;;;5.05;4.22;;;998.40;1126.40;;;;;;5244841;24;20065;-78
2021/06/27 10:24:58;;;;;;;5.57;4.95;;;998.40;1126.40;;;;;;4716817;30;20489;-79
2021/06/27 10:27:27;;;;;;;6.88;4.68;;;973.50;1100.80;;;;;;4716143;30;20033;-79
2021/06/27 10:29:54;;;;;;;6.22;4.15;;;973.70;1126.40;;;;;;4709147;30;20045;-77
2021/06/27 10:32:20;;;;;;;8.27;4.43;;;947.70;1126.40;;;;;;4708895;30;20033;-76
2021/06/27 10:34:48;;;;;;;6.03;4.10;;;922.20;1152.00;;;;;;4711231;30;20036;-77
2021/06/27 10:37:23;;;;;;;4.68;4.07;;;947.30;1152.00;;;;;;4715649;30;20029;-77
2021/06/27 10:40:06;;;;;;;4.72;3.80;;;948.10;1075.20;;;;;;4716301;30;20048;-76
2021/06/27 10:42:47;;;;;;;4.55;3.33;;;998.40;1049.60;;;;;;4711319;30;20072;-76
2021/06/27 10:45:14;;;;;;;5.85;4.00;;;998.90;1049.60;;;;;;4714952;30;20033;-76
2021/06/27 10:47:40;;;;;;;5.55;3.83;;;1024.00;1049.60;;;;;;4694045;30;20060;-76
2021/06/27 10:50:08;;;;;;;4.60;4.03;;;1024.00;1049.60;;;;;;4699152;30;20779;-77
2021/06/27 10:52:56;;;;;;;5.20;4.68;;;1024.40;1024.00;;;;;;4716788;30;20039;-77
2021/06/27 10:55:41;;;;;;;4.95;3.67;;;1024.80;998.40;;;;;;4715266;30;20047;-77
2021/06/27 10:58:33;;;;;;;4.70;4.15;;;1050.20;972.80;;;;;;4717022;30;20374;-77
2021/06/27 11:01:01;;;;;;;8.60;5.30;;;1049.60;1024.00;;;;;;4711847;30;20091;-77
2021/06/27 11:03:27;;;;;;;5.00;4.07;;;1049.60;998.40;;;;;;4716707;30;20037;-77
2021/06/27 11:06:00;;;;;;;4.80;4.18;;;1049.90;972.80;;;;;;4715224;30;20063;-77
2021/06/27 11:08:42;;;;;;;5.05;4.45;;;1075.30;972.80;;;;;;4716252;30;20139;-77
2021/06/27 11:11:09;;;;;;;5.72;4.28;;;1075.20;972.80;;;;;;4701756;30;20033;-77
2021/06/27 11:13:35;;;;;;;7.07;4.45;;;1050.30;972.80;;;;;;4716515;30;20139;-77
2021/06/27 11:16:03;;;;;;;6.22;4.20;;;1024.40;998.40;;;;;;4713951;30;20021;-74
2021/06/27 11:18:37;;;;;;;4.60;4.07;;;998.70;1049.60;;;;;;4716515;30;20061;-76
2021/06/27 11:21:13;;;;;;;5.53;4.50;;;972.80;1049.60;;;;;;4716534;30;20071;-76
2021/06/27 11:23:51;;;;;;;4.80;4.22;;;947.60;1049.60;;;;;;4699101;30;20053;-76
2021/06/27 11:26:38;;;;;;;4.82;3.97;;;972.90;1075.20;;;;;;4713824;30;20108;-77
2021/06/27 11:29:23;;;;;;;4.97;4.47;;;998.60;1024.00;;;;;;4715744;30;20031;-76
2021/06/27 11:31:49;;;;;;;5.57;4.45;;;998.80;1049.60;;;;;;4715113;30;20050;-76
2021/06/27 11:34:26;;;;;;;4.95;4.05;;;1024.20;998.40;;;;;;4716271;30;20037;-75
2021/06/27 11:36:54;;;;;;;5.22;4.72;;;998.60;1075.20;;;;;;4716183;30;20037;-74
2021/06/27 11:39:47;;;;;;;5.53;4.15;;;948.00;1075.20;;;;;;4718674;30;20049;-75
2021/06/27 11:42:36;;;;;;;10.32;5.45;;;947.80;1075.20;;;;;;4705253;30;20045;-74
2021/06/27 11:45:11;;;;;;;6.60;4.43;;;973.50;1049.60;;;;;;4716089;30;20155;-76
2021/06/27 11:47:55;;;;;;;5.50;4.60;;;998.70;1024.00;;;;;;4716597;30;20100;-75
2021/06/27 11:50:23;;;;;;;8.90;3.65;;;999.00;1024.00;;;;;;4698976;30;20029;-75
2021/06/27 11:53:07;;;;;;;6.60;4.45;;;1024.40;972.80;;;;;;4713915;30;20153;-75
2021/06/27 11:55:39;;;;;;;4.88;4.28;;;1024.60;972.80;;;;;;4714204;30;20037;-77
2021/06/27 11:58:08;;;;;;;6.10;4.25;;;1024.10;998.40;;;;;;4712734;30;20037;-77
2021/06/27 12:00:46;;;;;;;5.13;4.20;;;1024.10;1024.00;;;;;;4719512;30;20514;-77
2021/06/27 12:03:14;;;;;;;5.03;4.18;;;973.20;1049.60;;;;;;4719407;30;20037;-78
2021/06/27 12:05:51;;;;;;;5.07;4.30;;;947.70;1049.60;;;;;;4718470;30;20045;-78
2021/06/27 12:08:17;;;;;;;5.85;4.28;;;947.90;1049.60;;;;;;4719376;30;20029;-77
2021/06/27 12:10:44;;;;;;;5.53;4.43;;;998.40;1049.60;;;;;;4719249;30;20022;-77
2021/06/27 12:13:11;;;;;;;4.80;4.00;;;999.30;1024.00;;;;;;4716727;30;20697;-75
2021/06/27 12:15:41;;;;;;;4.60;3.97;;;1024.40;972.80;;;;;;4714402;30;20037;-76
2021/06/27 12:18:13;;;;;;;5.65;4.20;;;1024.70;947.20;;;;;;4719419;30;20084;-77
2021/06/27 12:20:46;;;;;;;5.70;4.57;;;1050.50;972.80;;;;;;4699427;30;20563;-77
2021/06/27 12:23:13;;;;;;;4.65;3.55;;;1050.30;972.80;;;;;;4715473;30;20109;-77
2021/06/27 12:25:50;;;;;;;6.80;4.65;;;1024.90;921.60;;;;;;4703106;30;20045;-78
2021/06/27 12:28:32;;;;;;;5.60;4.38;;;1024.20;972.80;;;;;;4717013;30;20111;-77
2021/06/27 12:31:04;;;;;;;5.85;4.43;;;1024.00;998.40;;;;;;4717962;30;20083;-78
2021/06/27 12:33:36;;;;;;;9.27;6.22;;;998.70;1024.00;;;;;;4718539;30;20033;-78
2021/06/27 12:36:13;;;;;;;4.70;4.28;;;1024.00;998.40;;;;;;4701482;30;20084;-77
2021/06/27 12:38:41;;;;;;;5.65;5.00;;;999.20;1024.00;;;;;;4701483;30;20037;-75
2021/06/27 12:41:11;;;;;;;6.43;4.97;;;1024.20;972.80;;;;;;4718099;30;20420;-75
2021/06/27 12:43:42;;;;;;;4.90;4.40;;;1024.50;972.80;;;;;;4714963;30;20432;-75
2021/06/27 12:46:16;;;;;;;8.32;4.65;;;1049.60;972.80;;;;;;4716828;30;20095;-75
2021/06/27 12:48:44;;;;;;;5.38;4.30;;;1050.40;972.80;;;;;;4715411;30;20033;-76
2021/06/27 12:51:44;;;;;;;8.25;4.68;;;1050.40;972.80;;;;;;4701854;30;20472;-74
2021/06/27 12:54:13;;;;;;;5.93;4.85;;;1075.90;947.20;;;;;;4649588;30;20119;-74
2021/06/27 12:56:43;;;;;;;6.07;4.13;;;1075.50;972.80;;;;;;4664734;30;20050;-75
2021/06/27 12:59:10;;;;;;;6.32;4.78;;;1075.40;972.80;;;;;;4656679;30;20031;-75
2021/06/27 13:01:58;;;;;;;5.00;3.80;;;1075.30;972.80;;;;;;4662967;30;20065;-74